sensor_id;sensor_type;location;lat;lon;timestamp;P1;durP1;ratioP1;P2;durP2;ratioP2
1563;SDS011;775;51.958;7.976;2023-11-21T00:00:29;25.07;;;11.07;;
1563;SDS011;775;51.958;7.976;2023-11-21T00:02:56;24.50;;;11.33;;
1563;SDS011;775;51.958;7.976;2023-11-21T00:05:23;27.80;;;13.17;;
1563;SDS011;775;51.958;7.976;2023-11-21T00:07:52;26.30;;;11.60;;
1563;SDS011;775;51.958;7.976;2023-11-21T00:10:19;28.43;;;12.77;;
1563;SDS011;775;51.958;7.976;2023-11-21T00:12:46;31.43;;;12.20;;
1563;SDS011;775;51.958;7.976;2023-11-21T00:15:13;28.17;;;12.70;;
1563;SDS011;775;51.958;7.976;2023-11-21T00:17:40;26.80;;;12.50;;
1563;SDS011;775;51.958;7.976;2023-11-21T00:20:08;27.13;;;11.83;;
1563;SDS011;775;51.958;7.976;2023-11-21T00:22:37;29.00;;;11.90;;
1563;SDS011;775;51.958;7.976;2023-11-21T00:25:07;26.90;;;12.67;;
1563;SDS011;775;51.958;7.976;2023-11-21T00:27:35;26.27;;;12.63;;
1563;SDS011;775;51.958;7.976;2023-11-21T00:30:02;28.63;;;12.27;;
1563;SDS011;775;51.958;7.976;2023-11-21T00:32:30;24.70;;;10.27;;
1563;SDS011;775;51.958;7.976;2023-11-21T00:34:57;22.50;;;10.53;;
1563;SDS011;775;51.958;7.976;2023-11-21T00:37:25;25.70;;;11.50;;
1563;SDS011;775;51.958;7.976;2023-11-21T00:39:52;27.67;;;12.20;;
1563;SDS011;775;51.958;7.976;2023-11-21T00:42:21;24.27;;;11.30;;
1563;SDS011;775;51.958;7.976;2023-11-21T00:44:48;25.80;;;11.03;;
1563;SDS011;775;51.958;7.976;2023-11-21T00:47:15;28.63;;;12.90;;
1563;SDS011;775;51.958;7.976;2023-11-21T00:49:42;28.37;;;11.73;;
1563;SDS011;775;51.958;7.976;2023-11-21T00:52:09;24.27;;;10.77;;
1563;SDS011;775;51.958;7.976;2023-11-21T00:54:36;27.80;;;12.27;;
1563;SDS011;775;51.958;7.976;2023-11-21T00:57:03;32.23;;;11.00;;
1563;SDS011;775;51.958;7.976;2023-11-21T00:59:32;24.27;;;11.10;;
1563;SDS011;775;51.958;7.976;2023-11-21T01:01:59;27.63;;;11.03;;
1563;SDS011;775;51.958;7.976;2023-11-21T01:04:27;26.20;;;11.77;;
1563;SDS011;775;51.958;7.976;2023-11-21T01:06:54;24.97;;;10.90;;
1563;SDS011;775;51.958;7.976;2023-11-21T01:09:21;30.40;;;12.80;;
1563;SDS011;775;51.958;7.976;2023-11-21T01:11:48;24.87;;;10.87;;
1563;SDS011;775;51.958;7.976;2023-11-21T01:14:17;24.30;;;11.07;;
1563;SDS011;775;51.958;7.976;2023-11-21T01:16:45;27.23;;;11.10;;
1563;SDS011;775;51.958;7.976;2023-11-21T01:19:13;23.10;;;10.53;;
1563;SDS011;775;51.958;7.976;2023-11-21T01:21:40;24.30;;;11.17;;
1563;SDS011;775;51.958;7.976;2023-11-21T01:24:08;26.97;;;11.40;;
1563;SDS011;775;51.958;7.976;2023-11-21T01:26:35;24.50;;;11.03;;
1563;SDS011;775;51.958;7.976;2023-11-21T01:29:02;29.13;;;10.83;;
1563;SDS011;775;51.958;7.976;2023-11-21T01:31:29;25.27;;;11.27;;
1563;SDS011;775;51.958;7.976;2023-11-21T01:33:58;24.90;;;11.10;;
1563;SDS011;775;51.958;7.976;2023-11-21T01:36:29;24.67;;;10.50;;
1563;SDS011;775;51.958;7.976;2023-11-21T01:38:57;25.37;;;11.70;;
1563;SDS011;775;51.958;7.976;2023-11-21T01:41:25;22.60;;;10.83;;
1563;SDS011;775;51.958;7.976;2023-11-21T01:43:53;23.50;;;10.57;;
1563;SDS011;775;51.958;7.976;2023-11-21T01:46:20;36.43;;;10.90;;
1563;SDS011;775;51.958;7.976;2023-11-21T01:48:48;23.23;;;10.57;;
1563;SDS011;775;51.958;7.976;2023-11-21T01:51:16;29.10;;;10.60;;
1563;SDS011;775;51.958;7.976;2023-11-21T01:53:44;25.37;;;9.57;;
1563;SDS011;775;51.958;7.976;2023-11-21T01:56:12;25.07;;;11.30;;
1563;SDS011;775;51.958;7.976;2023-11-21T01:58:39;26.60;;;10.53;;
1563;SDS011;775;51.958;7.976;2023-11-21T02:01:06;23.70;;;9.07;;
1563;SDS011;775;51.958;7.976;2023-11-21T02:03:34;22.57;;;10.20;;
1563;SDS011;775;51.958;7.976;2023-11-21T02:06:02;23.30;;;10.30;;
1563;SDS011;775;51.958;7.976;2023-11-21T02:08:30;23.07;;;9.23;;
1563;SDS011;775;51.958;7.976;2023-11-21T02:10:58;26.30;;;10.40;;
1563;SDS011;775;51.958;7.976;2023-11-21T02:13:25;25.63;;;10.40;;
1563;SDS011;775;51.958;7.976;2023-11-21T02:15:52;26.07;;;11.20;;
1563;SDS011;775;51.958;7.976;2023-11-21T02:18:19;23.67;;;10.83;;
1563;SDS011;775;51.958;7.976;2023-11-21T02:20:47;26.63;;;11.47;;
1563;SDS011;775;51.958;7.976;2023-11-21T02:23:15;28.77;;;12.43;;
1563;SDS011;775;51.958;7.976;2023-11-21T02:25:43;26.00;;;10.00;;
1563;SDS011;775;51.958;7.976;2023-11-21T02:28:10;25.03;;;11.43;;
1563;SDS011;775;51.958;7.976;2023-11-21T02:30:39;26.97;;;10.67;;
1563;SDS011;775;51.958;7.976;2023-11-21T02:33:07;23.53;;;9.33;;
1563;SDS011;775;51.958;7.976;2023-11-21T02:35:34;25.03;;;10.50;;
1563;SDS011;775;51.958;7.976;2023-11-21T02:38:03;24.97;;;10.43;;
1563;SDS011;775;51.958;7.976;2023-11-21T02:40:32;24.40;;;10.60;;
1563;SDS011;775;51.958;7.976;2023-11-21T02:42:59;24.47;;;10.80;;
1563;SDS011;775;51.958;7.976;2023-11-21T02:45:27;23.23;;;11.40;;
1563;SDS011;775;51.958;7.976;2023-11-21T02:47:55;24.43;;;10.27;;
1563;SDS011;775;51.958;7.976;2023-11-21T02:50:22;23.13;;;9.33;;
1563;SDS011;775;51.958;7.976;2023-11-21T02:52:49;22.90;;;10.17;;
1563;SDS011;775;51.958;7.976;2023-11-21T02:55:16;24.73;;;9.27;;
1563;SDS011;775;51.958;7.976;2023-11-21T02:57:45;25.17;;;9.20;;
1563;SDS011;775;51.958;7.976;2023-11-21T03:00:12;22.03;;;9.47;;
1563;SDS011;775;51.958;7.976;2023-11-21T03:02:40;23.53;;;10.40;;
1563;SDS011;775;51.958;7.976;2023-11-21T03:05:07;25.97;;;10.33;;
1563;SDS011;775;51.958;7.976;2023-11-21T03:07:35;23.90;;;10.37;;
1563;SDS011;775;51.958;7.976;2023-11-21T03:10:02;21.30;;;9.10;;
1563;SDS011;775;51.958;7.976;2023-11-21T03:12:29;23.17;;;10.07;;
1563;SDS011;775;51.958;7.976;2023-11-21T03:14:58;23.50;;;9.47;;
1563;SDS011;775;51.958;7.976;2023-11-21T03:17:26;25.30;;;10.00;;
1563;SDS011;775;51.958;7.976;2023-11-21T03:19:54;23.20;;;9.60;;
1563;SDS011;775;51.958;7.976;2023-11-21T03:22:22;23.53;;;9.30;;
1563;SDS011;775;51.958;7.976;2023-11-21T03:24:49;22.30;;;10.90;;
1563;SDS011;775;51.958;7.976;2023-11-21T03:27:16;23.00;;;9.90;;
1563;SDS011;775;51.958;7.976;2023-11-21T03:29:43;24.50;;;10.20;;
1563;SDS011;775;51.958;7.976;2023-11-21T03:32:13;26.63;;;10.83;;
1563;SDS011;775;51.958;7.976;2023-11-21T03:34:52;25.77;;;10.00;;
1563;SDS011;775;51.958;7.976;2023-11-21T03:37:20;24.90;;;9.97;;
1563;SDS011;775;51.958;7.976;2023-11-21T03:39:48;25.23;;;10.10;;
1563;SDS011;775;51.958;7.976;2023-11-21T03:42:15;24.83;;;10.13;;
1563;SDS011;775;51.958;7.976;2023-11-21T03:44:42;22.37;;;10.10;;
1563;SDS011;775;51.958;7.976;2023-11-21T03:47:09;23.47;;;10.00;;
1563;SDS011;775;51.958;7.976;2023-11-21T03:49:37;22.97;;;9.83;;
1563;SDS011;775;51.958;7.976;2023-11-21T03:52:05;20.50;;;8.43;;
1563;SDS011;775;51.958;7.976;2023-11-21T03:54:34;23.63;;;9.60;;
1563;SDS011;775;51.958;7.976;2023-11-21T03:57:01;25.30;;;10.17;;
1563;SDS011;775;51.958;7.976;2023-11-21T03:59:28;23.47;;;9.00;;
1563;SDS011;775;51.958;7.976;2023-11-21T04:01:55;23.43;;;9.90;;
1563;SDS011;775;51.958;7.976;2023-11-21T04:04:23;23.60;;;10.20;;
1563;SDS011;775;51.958;7.976;2023-11-21T04:06:51;24.60;;;8.97;;
1563;SDS011;775;51.958;7.976;2023-11-21T04:09:18;26.93;;;10.00;;
1563;SDS011;775;51.958;7.976;2023-11-21T04:11:46;24.10;;;10.07;;
1563;SDS011;775;51.958;7.976;2023-11-21T04:14:13;23.90;;;9.93;;
1563;SDS011;775;51.958;7.976;2023-11-21T04:16:40;22.67;;;10.10;;
1563;SDS011;775;51.958;7.976;2023-11-21T04:19:07;28.83;;;9.60;;
1563;SDS011;775;51.958;7.976;2023-11-21T04:21:35;24.40;;;10.10;;
1563;SDS011;775;51.958;7.976;2023-11-21T04:24:05;24.37;;;9.63;;
1563;SDS011;775;51.958;7.976;2023-11-21T04:26:32;24.50;;;10.17;;
1563;SDS011;775;51.958;7.976;2023-11-21T04:28:59;25.47;;;10.57;;
1563;SDS011;775;51.958;7.976;2023-11-21T04:31:26;24.30;;;10.10;;
1563;SDS011;775;51.958;7.976;2023-11-21T04:33:53;22.67;;;9.57;;
1563;SDS011;775;51.958;7.976;2023-11-21T04:36:20;24.27;;;9.50;;
1563;SDS011;775;51.958;7.976;2023-11-21T04:38:47;24.73;;;11.67;;
1563;SDS011;775;51.958;7.976;2023-11-21T04:41:16;24.70;;;11.10;;
1563;SDS011;775;51.958;7.976;2023-11-21T04:43:43;23.10;;;10.90;;
1563;SDS011;775;51.958;7.976;2023-11-21T04:46:10;25.97;;;11.23;;
1563;SDS011;775;51.958;7.976;2023-11-21T04:48:37;26.43;;;12.60;;
1563;SDS011;775;51.958;7.976;2023-11-21T04:51:04;30.47;;;11.93;;
1563;SDS011;775;51.958;7.976;2023-11-21T04:53:31;25.43;;;11.00;;
1563;SDS011;775;51.958;7.976;2023-11-21T04:55:59;22.30;;;9.80;;
1563;SDS011;775;51.958;7.976;2023-11-21T04:58:28;23.20;;;10.03;;
1563;SDS011;775;51.958;7.976;2023-11-21T05:00:55;24.73;;;10.37;;
1563;SDS011;775;51.958;7.976;2023-11-21T05:03:22;25.07;;;10.97;;
1563;SDS011;775;51.958;7.976;2023-11-21T05:05:49;23.80;;;10.20;;
1563;SDS011;775;51.958;7.976;2023-11-21T05:08:16;24.33;;;10.83;;
1563;SDS011;775;51.958;7.976;2023-11-21T05:10:45;24.87;;;10.80;;
1563;SDS011;775;51.958;7.976;2023-11-21T05:13:13;26.17;;;11.73;;
1563;SDS011;775;51.958;7.976;2023-11-21T05:15:44;24.23;;;9.90;;
1563;SDS011;775;51.958;7.976;2023-11-21T05:18:11;26.90;;;10.97;;
1563;SDS011;775;51.958;7.976;2023-11-21T05:20:38;27.47;;;10.97;;
1563;SDS011;775;51.958;7.976;2023-11-21T05:23:06;27.70;;;10.43;;
1563;SDS011;775;51.958;7.976;2023-11-21T05:25:33;23.73;;;9.90;;
1563;SDS011;775;51.958;7.976;2023-11-21T05:28:01;23.30;;;10.87;;
1563;SDS011;775;51.958;7.976;2023-11-21T05:30:29;22.70;;;9.80;;
1563;SDS011;775;51.958;7.976;2023-11-21T05:32:57;25.97;;;10.27;;
1563;SDS011;775;51.958;7.976;2023-11-21T05:35:24;22.63;;;11.03;;
1563;SDS011;775;51.958;7.976;2023-11-21T05:37:51;24.60;;;11.57;;
1563;SDS011;775;51.958;7.976;2023-11-21T05:40:19;23.03;;;9.60;;
1563;SDS011;775;51.958;7.976;2023-11-21T05:42:47;23.33;;;10.13;;
1563;SDS011;775;51.958;7.976;2023-11-21T05:45:16;22.80;;;9.60;;
1563;SDS011;775;51.958;7.976;2023-11-21T05:47:44;21.93;;;9.00;;
1563;SDS011;775;51.958;7.976;2023-11-21T05:50:13;22.00;;;9.90;;
1563;SDS011;775;51.958;7.976;2023-11-21T05:52:41;25.40;;;10.50;;
1563;SDS011;775;51.958;7.976;2023-11-21T05:55:09;24.40;;;9.90;;
1563;SDS011;775;51.958;7.976;2023-11-21T05:57:36;27.00;;;10.37;;
1563;SDS011;775;51.958;7.976;2023-11-21T06:00:04;23.37;;;9.97;;
1563;SDS011;775;51.958;7.976;2023-11-21T06:02:36;26.70;;;10.10;;
1563;SDS011;775;51.958;7.976;2023-11-21T06:05:04;25.10;;;12.13;;
1563;SDS011;775;51.958;7.976;2023-11-21T06:07:32;25.67;;;10.70;;
1563;SDS011;775;51.958;7.976;2023-11-21T06:10:00;28.07;;;11.07;;
1563;SDS011;775;51.958;7.976;2023-11-21T06:12:31;24.07;;;10.70;;
1563;SDS011;775;51.958;7.976;2023-11-21T06:15:00;23.37;;;10.03;;
1563;SDS011;775;51.958;7.976;2023-11-21T06:17:30;26.90;;;11.60;;
1563;SDS011;775;51.958;7.976;2023-11-21T06:19:57;27.10;;;9.90;;
1563;SDS011;775;51.958;7.976;2023-11-21T06:22:24;22.43;;;9.83;;
1563;SDS011;775;51.958;7.976;2023-11-21T06:24:53;26.10;;;10.10;;
1563;SDS011;775;51.958;7.976;2023-11-21T06:27:20;25.17;;;10.60;;
1563;SDS011;775;51.958;7.976;2023-11-21T06:29:49;23.00;;;10.40;;
1563;SDS011;775;51.958;7.976;2023-11-21T06:32:17;27.13;;;10.63;;
1563;SDS011;775;51.958;7.976;2023-11-21T06:34:45;26.97;;;11.00;;
1563;SDS011;775;51.958;7.976;2023-11-21T06:37:12;23.90;;;10.03;;
1563;SDS011;775;51.958;7.976;2023-11-21T06:39:39;27.50;;;10.90;;
1563;SDS011;775;51.958;7.976;2023-11-21T06:42:08;26.57;;;11.10;;
1563;SDS011;775;51.958;7.976;2023-11-21T06:44:35;22.93;;;9.87;;
1563;SDS011;775;51.958;7.976;2023-11-21T06:47:03;25.93;;;10.60;;
1563;SDS011;775;51.958;7.976;2023-11-21T06:49:30;29.33;;;11.80;;
1563;SDS011;775;51.958;7.976;2023-11-21T06:51:57;26.80;;;10.90;;
1563;SDS011;775;51.958;7.976;2023-11-21T06:54:24;28.43;;;11.67;;
1563;SDS011;775;51.958;7.976;2023-11-21T06:56:51;26.07;;;10.90;;
1563;SDS011;775;51.958;7.976;2023-11-21T06:59:20;26.20;;;11.43;;
1563;SDS011;775;51.958;7.976;2023-11-21T07:01:47;24.73;;;9.83;;
1563;SDS011;775;51.958;7.976;2023-11-21T07:04:14;33.60;;;11.70;;
1563;SDS011;775;51.958;7.976;2023-11-21T07:06:41;26.00;;;11.23;;
1563;SDS011;775;51.958;7.976;2023-11-21T07:09:08;30.47;;;11.17;;
1563;SDS011;775;51.958;7.976;2023-11-21T07:11:36;28.13;;;11.23;;
1563;SDS011;775;51.958;7.976;2023-11-21T07:14:04;28.43;;;12.53;;
1563;SDS011;775;51.958;7.976;2023-11-21T07:16:33;30.23;;;10.77;;
1563;SDS011;775;51.958;7.976;2023-11-21T07:19:02;32.50;;;14.87;;
1563;SDS011;775;51.958;7.976;2023-11-21T07:21:31;30.27;;;12.30;;
1563;SDS011;775;51.958;7.976;2023-11-21T07:23:58;29.27;;;12.43;;
1563;SDS011;775;51.958;7.976;2023-11-21T07:26:26;30.20;;;13.10;;
1563;SDS011;775;51.958;7.976;2023-11-21T07:28:53;29.60;;;14.57;;
1563;SDS011;775;51.958;7.976;2023-11-21T07:31:20;28.83;;;14.10;;
1563;SDS011;775;51.958;7.976;2023-11-21T07:33:49;29.20;;;12.67;;
1563;SDS011;775;51.958;7.976;2023-11-21T07:36:17;29.30;;;13.10;;
1563;SDS011;775;51.958;7.976;2023-11-21T07:38:45;35.50;;;13.80;;
1563;SDS011;775;51.958;7.976;2023-11-21T07:41:12;29.73;;;13.10;;
1563;SDS011;775;51.958;7.976;2023-11-21T07:43:40;29.60;;;14.37;;
1563;SDS011;775;51.958;7.976;2023-11-21T07:46:07;29.27;;;13.10;;
1563;SDS011;775;51.958;7.976;2023-11-21T07:48:34;30.23;;;12.73;;
1563;SDS011;775;51.958;7.976;2023-11-21T07:51:03;29.23;;;13.13;;
1563;SDS011;775;51.958;7.976;2023-11-21T07:53:30;26.57;;;11.97;;
1563;SDS011;775;51.958;7.976;2023-11-21T07:55:57;31.37;;;11.97;;
1563;SDS011;775;51.958;7.976;2023-11-21T07:58:24;30.70;;;11.73;;
1563;SDS011;775;51.958;7.976;2023-11-21T08:00:51;27.90;;;12.03;;
1563;SDS011;775;51.958;7.976;2023-11-21T08:03:19;27.10;;;12.03;;
1563;SDS011;775;51.958;7.976;2023-11-21T08:05:46;28.93;;;12.50;;
1563;SDS011;775;51.958;7.976;2023-11-21T08:08:14;29.40;;;13.43;;
1563;SDS011;775;51.958;7.976;2023-11-21T08:10:43;27.50;;;11.00;;
1563;SDS011;775;51.958;7.976;2023-11-21T08:13:21;32.17;;;13.40;;
1563;SDS011;775;51.958;7.976;2023-11-21T08:15:48;28.40;;;11.30;;
1563;SDS011;775;51.958;7.976;2023-11-21T08:18:15;32.70;;;12.47;;
1563;SDS011;775;51.958;7.976;2023-11-21T08:20:42;30.63;;;13.10;;
1563;SDS011;775;51.958;7.976;2023-11-21T08:23:12;27.10;;;11.10;;
1563;SDS011;775;51.958;7.976;2023-11-21T08:25:41;30.20;;;11.40;;
1563;SDS011;775;51.958;7.976;2023-11-21T08:28:08;29.57;;;13.40;;
1563;SDS011;775;51.958;7.976;2023-11-21T08:30:36;26.00;;;11.33;;
1563;SDS011;775;51.958;7.976;2023-11-21T08:33:03;30.13;;;12.67;;
1563;SDS011;775;51.958;7.976;2023-11-21T08:35:30;25.80;;;10.77;;
1563;SDS011;775;51.958;7.976;2023-11-21T08:37:57;31.93;;;12.30;;
1563;SDS011;775;51.958;7.976;2023-11-21T08:40:24;28.90;;;11.80;;
1563;SDS011;775;51.958;7.976;2023-11-21T08:42:53;31.73;;;12.77;;
1563;SDS011;775;51.958;7.976;2023-11-21T08:45:20;31.10;;;12.33;;
1563;SDS011;775;51.958;7.976;2023-11-21T08:47:48;30.70;;;13.13;;
1563;SDS011;775;51.958;7.976;2023-11-21T08:50:15;28.63;;;11.50;;
1563;SDS011;775;51.958;7.976;2023-11-21T08:52:43;30.43;;;11.93;;
1563;SDS011;775;51.958;7.976;2023-11-21T08:55:10;32.83;;;11.60;;
1563;SDS011;775;51.958;7.976;2023-11-21T08:57:39;26.20;;;11.33;;
1563;SDS011;775;51.958;7.976;2023-11-21T09:00:08;29.23;;;12.90;;
1563;SDS011;775;51.958;7.976;2023-11-21T09:02:36;32.23;;;11.40;;
1563;SDS011;775;51.958;7.976;2023-11-21T09:05:04;29.67;;;11.67;;
1563;SDS011;775;51.958;7.976;2023-11-21T09:07:31;28.83;;;11.10;;
1563;SDS011;775;51.958;7.976;2023-11-21T09:09:58;29.07;;;11.07;;
1563;SDS011;775;51.958;7.976;2023-11-21T09:12:25;27.20;;;10.47;;
1563;SDS011;775;51.958;7.976;2023-11-21T09:14:52;32.30;;;10.73;;
1563;SDS011;775;51.958;7.976;2023-11-21T09:17:21;24.23;;;9.70;;
1563;SDS011;775;51.958;7.976;2023-11-21T09:19:48;25.90;;;9.83;;
1563;SDS011;775;51.958;7.976;2023-11-21T09:22:16;23.37;;;9.30;;
1563;SDS011;775;51.958;7.976;2023-11-21T09:24:43;31.53;;;10.10;;
1563;SDS011;775;51.958;7.976;2023-11-21T09:27:10;25.60;;;9.97;;
1563;SDS011;775;51.958;7.976;2023-11-21T09:29:37;23.90;;;9.63;;
1563;SDS011;775;51.958;7.976;2023-11-21T09:32:05;26.10;;;9.50;;
1563;SDS011;775;51.958;7.976;2023-11-21T09:34:34;25.30;;;8.93;;
1563;SDS011;775;51.958;7.976;2023-11-21T09:37:03;23.10;;;8.83;;
1563;SDS011;775;51.958;7.976;2023-11-21T09:39:31;25.00;;;10.30;;
1563;SDS011;775;51.958;7.976;2023-11-21T09:41:59;24.27;;;8.30;;
1563;SDS011;775;51.958;7.976;2023-11-21T09:44:32;23.33;;;8.10;;
1563;SDS011;775;51.958;7.976;2023-11-21T09:47:02;24.87;;;7.80;;
1563;SDS011;775;51.958;7.976;2023-11-21T09:49:29;23.57;;;8.20;;
1563;SDS011;775;51.958;7.976;2023-11-21T09:52:01;21.87;;;8.23;;
1563;SDS011;775;51.958;7.976;2023-11-21T09:54:29;22.67;;;8.37;;
1563;SDS011;775;51.958;7.976;2023-11-21T09:56:57;21.57;;;8.10;;
1563;SDS011;775;51.958;7.976;2023-11-21T09:59:24;24.30;;;7.90;;
1563;SDS011;775;51.958;7.976;2023-11-21T10:01:54;22.53;;;7.30;;
1563;SDS011;775;51.958;7.976;2023-11-21T10:04:23;21.13;;;6.83;;
1563;SDS011;775;51.958;7.976;2023-11-21T10:06:51;22.90;;;7.70;;
1563;SDS011;775;51.958;7.976;2023-11-21T10:09:21;22.73;;;7.43;;
1563;SDS011;775;51.958;7.976;2023-11-21T10:11:49;22.80;;;7.80;;
1563;SDS011;775;51.958;7.976;2023-11-21T10:14:17;22.27;;;7.73;;
1563;SDS011;775;51.958;7.976;2023-11-21T10:16:46;22.00;;;7.70;;
1563;SDS011;775;51.958;7.976;2023-11-21T10:19:14;24.07;;;7.87;;
1563;SDS011;775;51.958;7.976;2023-11-21T10:21:43;22.03;;;7.60;;
1563;SDS011;775;51.958;7.976;2023-11-21T10:24:10;23.30;;;7.83;;
1563;SDS011;775;51.958;7.976;2023-11-21T10:26:39;22.87;;;7.67;;
1563;SDS011;775;51.958;7.976;2023-11-21T10:29:06;22.20;;;7.30;;
1563;SDS011;775;51.958;7.976;2023-11-21T10:31:34;22.23;;;7.07;;
1563;SDS011;775;51.958;7.976;2023-11-21T10:34:13;21.20;;;7.80;;
1563;SDS011;775;51.958;7.976;2023-11-21T10:36:40;27.17;;;8.37;;
1563;SDS011;775;51.958;7.976;2023-11-21T10:39:08;23.83;;;8.20;;
1563;SDS011;775;51.958;7.976;2023-11-21T10:41:35;22.90;;;7.50;;
1563;SDS011;775;51.958;7.976;2023-11-21T10:44:04;21.80;;;7.20;;
1563;SDS011;775;51.958;7.976;2023-11-21T10:46:32;23.60;;;8.30;;
1563;SDS011;775;51.958;7.976;2023-11-21T10:49:00;21.00;;;7.63;;
1563;SDS011;775;51.958;7.976;2023-11-21T10:51:27;22.10;;;7.70;;
1563;SDS011;775;51.958;7.976;2023-11-21T10:53:54;22.17;;;7.40;;
1563;SDS011;775;51.958;7.976;2023-11-21T10:56:23;23.00;;;7.70;;
1563;SDS011;775;51.958;7.976;2023-11-21T10:58:50;20.40;;;6.60;;
1563;SDS011;775;51.958;7.976;2023-11-21T11:01:19;21.10;;;6.23;;
1563;SDS011;775;51.958;7.976;2023-11-21T11:03:47;20.70;;;7.07;;
1563;SDS011;775;51.958;7.976;2023-11-21T11:06:14;22.17;;;6.40;;
1563;SDS011;775;51.958;7.976;2023-11-21T11:08:42;19.80;;;6.90;;
1563;SDS011;775;51.958;7.976;2023-11-21T11:11:10;26.27;;;6.80;;
1563;SDS011;775;51.958;7.976;2023-11-21T11:13:39;18.57;;;5.77;;
1563;SDS011;775;51.958;7.976;2023-11-21T11:16:10;21.17;;;5.80;;
1563;SDS011;775;51.958;7.976;2023-11-21T11:18:43;19.57;;;5.67;;
1563;SDS011;775;51.958;7.976;2023-11-21T11:21:15;19.73;;;6.13;;
1563;SDS011;775;51.958;7.976;2023-11-21T11:23:49;19.23;;;5.90;;
1563;SDS011;775;51.958;7.976;2023-11-21T11:26:24;18.43;;;5.77;;
1563;SDS011;775;51.958;7.976;2023-11-21T11:28:57;19.80;;;5.57;;
1563;SDS011;775;51.958;7.976;2023-11-21T11:31:27;18.10;;;5.50;;
1563;SDS011;775;51.958;7.976;2023-11-21T11:33:59;18.97;;;5.07;;
1563;SDS011;775;51.958;7.976;2023-11-21T11:36:29;15.97;;;4.53;;
1563;SDS011;775;51.958;7.976;2023-11-21T11:38:57;16.63;;;4.37;;
1563;SDS011;775;51.958;7.976;2023-11-21T11:41:27;15.73;;;4.40;;
1563;SDS011;775;51.958;7.976;2023-11-21T11:43:54;16.80;;;4.30;;
1563;SDS011;775;51.958;7.976;2023-11-21T11:46:27;16.90;;;4.57;;
1563;SDS011;775;51.958;7.976;2023-11-21T11:49:08;15.90;;;3.77;;
1563;SDS011;775;51.958;7.976;2023-11-21T11:51:35;15.77;;;4.10;;
1563;SDS011;775;51.958;7.976;2023-11-21T11:54:02;16.63;;;4.50;;
1563;SDS011;775;51.958;7.976;2023-11-21T11:56:34;16.17;;;4.00;;
1563;SDS011;775;51.958;7.976;2023-11-21T11:59:03;16.67;;;3.80;;
1563;SDS011;775;51.958;7.976;2023-11-21T12:01:32;15.90;;;3.43;;
1563;SDS011;775;51.958;7.976;2023-11-21T12:07:01;16.93;;;3.77;;
1563;SDS011;775;51.958;7.976;2023-11-21T12:09:31;16.33;;;3.50;;
1563;SDS011;775;51.958;7.976;2023-11-21T12:11:59;16.43;;;3.90;;
1563;SDS011;775;51.958;7.976;2023-11-21T12:14:26;17.60;;;3.63;;
1563;SDS011;775;51.958;7.976;2023-11-21T12:16:54;15.27;;;3.47;;
1563;SDS011;775;51.958;7.976;2023-11-21T12:19:21;15.40;;;3.43;;
1563;SDS011;775;51.958;7.976;2023-11-21T12:21:48;15.07;;;3.17;;
1563;SDS011;775;51.958;7.976;2023-11-21T12:24:18;16.90;;;4.10;;
1563;SDS011;775;51.958;7.976;2023-11-21T12:26:45;15.23;;;3.50;;
1563;SDS011;775;51.958;7.976;2023-11-21T12:29:13;19.80;;;3.80;;
1563;SDS011;775;51.958;7.976;2023-11-21T12:31:41;15.93;;;4.10;;
1563;SDS011;775;51.958;7.976;2023-11-21T12:34:09;17.07;;;3.47;;
1563;SDS011;775;51.958;7.976;2023-11-21T12:36:37;15.47;;;3.70;;
1563;SDS011;775;51.958;7.976;2023-11-21T12:39:05;16.00;;;4.00;;
1563;SDS011;775;51.958;7.976;2023-11-21T12:41:35;15.97;;;3.80;;
1563;SDS011;775;51.958;7.976;2023-11-21T12:44:02;17.40;;;4.50;;
1563;SDS011;775;51.958;7.976;2023-11-21T12:46:29;16.23;;;4.00;;
1563;SDS011;775;51.958;7.976;2023-11-21T12:48:59;16.60;;;4.10;;
1563;SDS011;775;51.958;7.976;2023-11-21T12:51:26;18.50;;;4.07;;
1563;SDS011;775;51.958;7.976;2023-11-21T12:53:54;16.50;;;4.37;;
1563;SDS011;775;51.958;7.976;2023-11-21T12:56:23;16.67;;;4.50;;
1563;SDS011;775;51.958;7.976;2023-11-21T12:58:53;17.57;;;5.00;;
1563;SDS011;775;51.958;7.976;2023-11-21T13:01:24;18.20;;;6.17;;
1563;SDS011;775;51.958;7.976;2023-11-21T13:03:53;16.53;;;4.73;;
1563;SDS011;775;51.958;7.976;2023-11-21T13:06:20;19.77;;;6.77;;
1563;SDS011;775;51.958;7.976;2023-11-21T13:08:50;19.40;;;6.90;;
1563;SDS011;775;51.958;7.976;2023-11-21T13:11:17;21.73;;;7.63;;
1563;SDS011;775;51.958;7.976;2023-11-21T13:13:44;22.97;;;7.90;;
1563;SDS011;775;51.958;7.976;2023-11-21T13:16:12;19.73;;;7.27;;
1563;SDS011;775;51.958;7.976;2023-11-21T13:18:40;19.90;;;7.07;;
1563;SDS011;775;51.958;7.976;2023-11-21T13:21:09;20.00;;;7.13;;
1563;SDS011;775;51.958;7.976;2023-11-21T13:23:37;20.77;;;7.63;;
1563;SDS011;775;51.958;7.976;2023-11-21T13:26:05;20.37;;;7.00;;
1563;SDS011;775;51.958;7.976;2023-11-21T13:28:33;20.60;;;6.70;;
1563;SDS011;775;51.958;7.976;2023-11-21T13:31:02;19.67;;;6.80;;
1563;SDS011;775;51.958;7.976;2023-11-21T13:33:35;20.07;;;7.10;;
1563;SDS011;775;51.958;7.976;2023-11-21T13:36:04;19.80;;;7.00;;
1563;SDS011;775;51.958;7.976;2023-11-21T13:38:33;19.27;;;6.87;;
1563;SDS011;775;51.958;7.976;2023-11-21T13:41:01;17.40;;;5.80;;
1563;SDS011;775;51.958;7.976;2023-11-21T13:43:32;17.57;;;5.87;;
1563;SDS011;775;51.958;7.976;2023-11-21T13:45:59;17.50;;;5.33;;
1563;SDS011;775;51.958;7.976;2023-11-21T13:48:39;18.30;;;5.50;;
1563;SDS011;775;51.958;7.976;2023-11-21T13:51:08;20.57;;;5.33;;
1563;SDS011;775;51.958;7.976;2023-11-21T13:53:42;16.77;;;4.90;;
1563;SDS011;775;51.958;7.976;2023-11-21T13:56:09;17.10;;;4.17;;
1563;SDS011;775;51.958;7.976;2023-11-21T13:58:38;16.93;;;4.93;;
1563;SDS011;775;51.958;7.976;2023-11-21T14:01:11;16.90;;;5.20;;
1563;SDS011;775;51.958;7.976;2023-11-21T14:03:59;18.30;;;6.20;;
1563;SDS011;775;51.958;7.976;2023-11-21T14:06:34;18.40;;;5.53;;
1563;SDS011;775;51.958;7.976;2023-11-21T14:09:11;20.60;;;5.30;;
1563;SDS011;775;51.958;7.976;2023-11-21T14:11:47;18.03;;;5.70;;
1563;SDS011;775;51.958;7.976;2023-11-21T14:14:14;20.97;;;5.87;;
1563;SDS011;775;51.958;7.976;2023-11-21T14:16:43;22.93;;;6.43;;
1563;SDS011;775;51.958;7.976;2023-11-21T14:19:11;20.00;;;6.03;;
1563;SDS011;775;51.958;7.976;2023-11-21T14:21:42;17.97;;;5.53;;
1563;SDS011;775;51.958;7.976;2023-11-21T14:24:09;18.93;;;6.67;;
1563;SDS011;775;51.958;7.976;2023-11-21T14:26:38;20.03;;;6.30;;
1563;SDS011;775;51.958;7.976;2023-11-21T14:29:05;19.47;;;6.47;;
1563;SDS011;775;51.958;7.976;2023-11-21T14:31:33;21.20;;;7.00;;
1563;SDS011;775;51.958;7.976;2023-11-21T14:34:00;17.67;;;5.67;;
1563;SDS011;775;51.958;7.976;2023-11-21T14:36:29;19.30;;;7.47;;
1563;SDS011;775;51.958;7.976;2023-11-21T14:38:56;20.20;;;7.03;;
1563;SDS011;775;51.958;7.976;2023-11-21T14:41:23;22.30;;;6.63;;
1563;SDS011;775;51.958;7.976;2023-11-21T14:43:52;19.27;;;6.70;;
1563;SDS011;775;51.958;7.976;2023-11-21T14:46:20;19.67;;;6.97;;
1563;SDS011;775;51.958;7.976;2023-11-21T14:48:47;18.70;;;6.60;;
1563;SDS011;775;51.958;7.976;2023-11-21T14:51:23;18.80;;;6.40;;
1563;SDS011;775;51.958;7.976;2023-11-21T14:53:57;18.37;;;6.90;;
1563;SDS011;775;51.958;7.976;2023-11-21T14:56:31;19.63;;;6.93;;
1563;SDS011;775;51.958;7.976;2023-11-21T14:58:59;20.00;;;7.60;;
1563;SDS011;775;51.958;7.976;2023-11-21T15:01:31;22.20;;;8.30;;
1563;SDS011;775;51.958;7.976;2023-11-21T15:04:09;23.00;;;8.00;;
1563;SDS011;775;51.958;7.976;2023-11-21T15:06:47;19.80;;;7.07;;
1563;SDS011;775;51.958;7.976;2023-11-21T15:09:15;19.57;;;6.17;;
1563;SDS011;775;51.958;7.976;2023-11-21T15:11:59;18.03;;;6.40;;
1563;SDS011;775;51.958;7.976;2023-11-21T15:14:34;17.90;;;5.63;;
1563;SDS011;775;51.958;7.976;2023-11-21T15:17:02;23.03;;;7.10;;